sensor_id;sensor_type;location;lat;lon;timestamp;P1;durP1;ratioP1;P2;durP2;ratioP2
80241;SDS011;69556;45.004;7.532;2023-11-22T00:01:28;42.42;;;21.13;;
80241;SDS011;69556;45.004;7.532;2023-11-22T00:03:53;35.17;;;19.15;;
80241;SDS011;69556;45.004;7.532;2023-11-22T00:06:19;40.30;;;21.40;;
80241;SDS011;69556;45.004;7.532;2023-11-22T00:08:45;44.90;;;22.88;;
80241;SDS011;69556;45.004;7.532;2023-11-22T00:11:11;41.42;;;20.25;;
80241;SDS011;69556;45.004;7.532;2023-11-22T00:13:39;42.80;;;20.42;;
80241;SDS011;69556;45.004;7.532;2023-11-22T00:16:05;36.85;;;21.10;;
80241;SDS011;69556;45.004;7.532;2023-11-22T00:18:33;42.47;;;20.25;;
80241;SDS011;69556;45.004;7.532;2023-11-22T00:20:59;43.80;;;19.40;;
80241;SDS011;69556;45.004;7.532;2023-11-22T00:23:25;40.77;;;20.53;;
80241;SDS011;69556;45.004;7.532;2023-11-22T00:25:54;42.17;;;21.58;;
80241;SDS011;69556;45.004;7.532;2023-11-22T00:28:19;46.38;;;20.77;;
80241;SDS011;69556;45.004;7.532;2023-11-22T00:30:45;46.15;;;24.02;;
80241;SDS011;69556;45.004;7.532;2023-11-22T00:33:10;48.58;;;23.30;;
80241;SDS011;69556;45.004;7.532;2023-11-22T00:35:35;45.90;;;23.97;;
80241;SDS011;69556;45.004;7.532;2023-11-22T00:38:01;40.65;;;19.05;;
80241;SDS011;69556;45.004;7.532;2023-11-22T00:40:26;41.72;;;23.25;;
80241;SDS011;69556;45.004;7.532;2023-11-22T00:42:52;39.28;;;22.23;;
80241;SDS011;69556;45.004;7.532;2023-11-22T00:45:17;42.35;;;22.27;;
80241;SDS011;69556;45.004;7.532;2023-11-22T00:47:43;43.15;;;22.10;;
80241;SDS011;69556;45.004;7.532;2023-11-22T00:50:09;38.27;;;19.47;;
80241;SDS011;69556;45.004;7.532;2023-11-22T00:52:34;41.60;;;21.58;;
80241;SDS011;69556;45.004;7.532;2023-11-22T00:55:00;42.00;;;20.70;;
80241;SDS011;69556;45.004;7.532;2023-11-22T00:57:25;36.53;;;22.03;;
80241;SDS011;69556;45.004;7.532;2023-11-22T00:59:52;42.80;;;22.27;;
80241;SDS011;69556;45.004;7.532;2023-11-22T01:02:18;47.45;;;25.15;;
80241;SDS011;69556;45.004;7.532;2023-11-22T01:04:44;44.00;;;22.33;;
80241;SDS011;69556;45.004;7.532;2023-11-22T01:07:10;40.05;;;20.35;;
80241;SDS011;69556;45.004;7.532;2023-11-22T01:09:35;38.80;;;20.23;;
80241;SDS011;69556;45.004;7.532;2023-11-22T01:12:01;38.63;;;19.97;;
80241;SDS011;69556;45.004;7.532;2023-11-22T01:14:27;36.80;;;18.40;;
80241;SDS011;69556;45.004;7.532;2023-11-22T01:16:53;35.55;;;19.67;;
80241;SDS011;69556;45.004;7.532;2023-11-22T01:19:21;34.38;;;18.52;;
80241;SDS011;69556;45.004;7.532;2023-11-22T01:21:47;34.00;;;17.03;;
80241;SDS011;69556;45.004;7.532;2023-11-22T01:24:12;30.75;;;18.25;;
80241;SDS011;69556;45.004;7.532;2023-11-22T01:26:37;32.22;;;17.85;;
80241;SDS011;69556;45.004;7.532;2023-11-22T01:29:03;37.47;;;18.98;;
80241;SDS011;69556;45.004;7.532;2023-11-22T01:31:29;39.92;;;19.50;;
80241;SDS011;69556;45.004;7.532;2023-11-22T01:33:54;33.13;;;17.60;;
80241;SDS011;69556;45.004;7.532;2023-11-22T01:36:20;34.40;;;18.15;;
80241;SDS011;69556;45.004;7.532;2023-11-22T01:38:45;31.60;;;16.73;;
80241;SDS011;69556;45.004;7.532;2023-11-22T01:41:11;35.33;;;17.10;;
80241;SDS011;69556;45.004;7.532;2023-11-22T01:43:38;32.10;;;16.77;;
80241;SDS011;69556;45.004;7.532;2023-11-22T01:46:05;33.90;;;17.38;;
80241;SDS011;69556;45.004;7.532;2023-11-22T01:48:32;35.53;;;16.63;;
80241;SDS011;69556;45.004;7.532;2023-11-22T01:50:57;32.65;;;16.85;;
80241;SDS011;69556;45.004;7.532;2023-11-22T01:53:23;25.52;;;15.48;;
80241;SDS011;69556;45.004;7.532;2023-11-22T01:55:49;32.10;;;15.93;;
80241;SDS011;69556;45.004;7.532;2023-11-22T01:58:15;27.60;;;13.80;;
80241;SDS011;69556;45.004;7.532;2023-11-22T02:00:51;28.33;;;15.00;;
80241;SDS011;69556;45.004;7.532;2023-11-22T02:03:17;29.88;;;15.23;;
80241;SDS011;69556;45.004;7.532;2023-11-22T02:05:43;22.23;;;11.65;;
80241;SDS011;69556;45.004;7.532;2023-11-22T02:08:10;23.80;;;12.48;;
80241;SDS011;69556;45.004;7.532;2023-11-22T02:10:36;20.23;;;11.68;;
80241;SDS011;69556;45.004;7.532;2023-11-22T02:13:02;19.95;;;11.40;;
80241;SDS011;69556;45.004;7.532;2023-11-22T02:15:30;24.60;;;12.43;;
80241;SDS011;69556;45.004;7.532;2023-11-22T02:17:56;26.02;;;13.38;;
80241;SDS011;69556;45.004;7.532;2023-11-22T02:20:22;20.10;;;10.40;;
80241;SDS011;69556;45.004;7.532;2023-11-22T02:22:47;20.38;;;9.73;;
80241;SDS011;69556;45.004;7.532;2023-11-22T02:25:13;21.65;;;9.25;;
80241;SDS011;69556;45.004;7.532;2023-11-22T02:27:40;19.52;;;10.43;;
80241;SDS011;69556;45.004;7.532;2023-11-22T02:30:06;15.48;;;9.60;;
80241;SDS011;69556;45.004;7.532;2023-11-22T02:32:31;16.25;;;7.88;;
80241;SDS011;69556;45.004;7.532;2023-11-22T02:34:58;15.18;;;8.27;;
80241;SDS011;69556;45.004;7.532;2023-11-22T02:37:23;16.48;;;8.93;;
80241;SDS011;69556;45.004;7.532;2023-11-22T02:40:06;19.17;;;9.70;;
80241;SDS011;69556;45.004;7.532;2023-11-22T02:42:36;12.40;;;7.65;;
80241;SDS011;69556;45.004;7.532;2023-11-22T02:45:02;10.77;;;6.35;;
80241;SDS011;69556;45.004;7.532;2023-11-22T02:47:27;11.30;;;6.00;;
80241;SDS011;69556;45.004;7.532;2023-11-22T02:49:53;12.03;;;6.90;;
80241;SDS011;69556;45.004;7.532;2023-11-22T02:52:19;10.80;;;5.28;;
80241;SDS011;69556;45.004;7.532;2023-11-22T02:54:45;11.15;;;5.47;;
80241;SDS011;69556;45.004;7.532;2023-11-22T02:57:10;8.18;;;4.90;;
80241;SDS011;69556;45.004;7.532;2023-11-22T02:59:36;9.55;;;4.93;;
80241;SDS011;69556;45.004;7.532;2023-11-22T03:02:02;11.23;;;4.97;;
80241;SDS011;69556;45.004;7.532;2023-11-22T03:04:27;9.43;;;6.00;;
80241;SDS011;69556;45.004;7.532;2023-11-22T03:06:53;11.60;;;6.10;;
80241;SDS011;69556;45.004;7.532;2023-11-22T03:09:18;12.93;;;6.65;;
80241;SDS011;69556;45.004;7.532;2023-11-22T03:11:44;13.47;;;6.37;;
80241;SDS011;69556;45.004;7.532;2023-11-22T03:14:09;12.13;;;6.60;;
80241;SDS011;69556;45.004;7.532;2023-11-22T03:16:34;11.03;;;6.47;;
80241;SDS011;69556;45.004;7.532;2023-11-22T03:19:04;12.48;;;7.90;;
80241;SDS011;69556;45.004;7.532;2023-11-22T03:21:29;12.83;;;8.77;;
80241;SDS011;69556;45.004;7.532;2023-11-22T03:23:54;17.43;;;10.03;;
80241;SDS011;69556;45.004;7.532;2023-11-22T03:26:20;18.83;;;10.53;;
80241;SDS011;69556;45.004;7.532;2023-11-22T03:28:45;21.37;;;12.47;;
80241;SDS011;69556;45.004;7.532;2023-11-22T03:31:10;20.33;;;11.50;;
80241;SDS011;69556;45.004;7.532;2023-11-22T03:33:36;22.27;;;12.35;;
80241;SDS011;69556;45.004;7.532;2023-11-22T03:36:01;24.08;;;12.48;;
80241;SDS011;69556;45.004;7.532;2023-11-22T03:38:27;20.67;;;12.45;;
80241;SDS011;69556;45.004;7.532;2023-11-22T03:40:52;27.13;;;13.82;;
80241;SDS011;69556;45.004;7.532;2023-11-22T03:43:18;28.88;;;15.15;;
80241;SDS011;69556;45.004;7.532;2023-11-22T03:45:44;29.95;;;15.93;;
80241;SDS011;69556;45.004;7.532;2023-11-22T03:48:09;29.38;;;15.13;;
80241;SDS011;69556;45.004;7.532;2023-11-22T03:50:34;25.07;;;15.87;;
80241;SDS011;69556;45.004;7.532;2023-11-22T03:53:00;29.10;;;14.63;;
80241;SDS011;69556;45.004;7.532;2023-11-22T03:55:25;36.50;;;14.93;;
80241;SDS011;69556;45.004;7.532;2023-11-22T03:57:50;31.63;;;16.45;;
80241;SDS011;69556;45.004;7.532;2023-11-22T04:00:16;31.93;;;15.70;;
80241;SDS011;69556;45.004;7.532;2023-11-22T04:02:42;34.15;;;17.08;;
80241;SDS011;69556;45.004;7.532;2023-11-22T04:05:09;28.05;;;16.30;;
80241;SDS011;69556;45.004;7.532;2023-11-22T04:07:36;33.28;;;17.15;;
80241;SDS011;69556;45.004;7.532;2023-11-22T04:10:03;32.47;;;16.92;;
80241;SDS011;69556;45.004;7.532;2023-11-22T04:12:29;27.38;;;15.63;;
80241;SDS011;69556;45.004;7.532;2023-11-22T04:14:54;36.33;;;17.63;;
80241;SDS011;69556;45.004;7.532;2023-11-22T04:17:19;32.95;;;17.48;;
80241;SDS011;69556;45.004;7.532;2023-11-22T04:19:45;32.03;;;17.00;;
80241;SDS011;69556;45.004;7.532;2023-11-22T04:22:10;30.00;;;16.10;;
80241;SDS011;69556;45.004;7.532;2023-11-22T04:24:36;33.33;;;17.70;;
80241;SDS011;69556;45.004;7.532;2023-11-22T04:27:02;34.90;;;17.75;;
80241;SDS011;69556;45.004;7.532;2023-11-22T04:29:28;37.85;;;18.92;;
80241;SDS011;69556;45.004;7.532;2023-11-22T04:31:53;32.17;;;16.90;;
80241;SDS011;69556;45.004;7.532;2023-11-22T04:34:18;33.30;;;17.60;;
80241;SDS011;69556;45.004;7.532;2023-11-22T04:36:45;36.67;;;18.85;;
80241;SDS011;69556;45.004;7.532;2023-11-22T04:39:11;32.55;;;18.58;;
80241;SDS011;69556;45.004;7.532;2023-11-22T04:41:38;37.10;;;16.92;;
80241;SDS011;69556;45.004;7.532;2023-11-22T04:44:04;41.20;;;19.98;;
80241;SDS011;69556;45.004;7.532;2023-11-22T04:46:29;31.10;;;17.80;;
80241;SDS011;69556;45.004;7.532;2023-11-22T04:48:55;35.28;;;17.90;;
80241;SDS011;69556;45.004;7.532;2023-11-22T04:51:20;36.35;;;17.40;;
80241;SDS011;69556;45.004;7.532;2023-11-22T04:53:45;34.22;;;18.17;;
80241;SDS011;69556;45.004;7.532;2023-11-22T04:56:11;25.93;;;15.80;;
80241;SDS011;69556;45.004;7.532;2023-11-22T04:58:36;34.60;;;17.20;;
80241;SDS011;69556;45.004;7.532;2023-11-22T05:01:02;34.13;;;18.07;;
80241;SDS011;69556;45.004;7.532;2023-11-22T05:03:27;35.30;;;18.20;;
80241;SDS011;69556;45.004;7.532;2023-11-22T05:05:52;38.33;;;16.73;;
80241;SDS011;69556;45.004;7.532;2023-11-22T05:08:18;30.98;;;16.80;;
80241;SDS011;69556;45.004;7.532;2023-11-22T05:10:43;34.20;;;18.53;;
80241;SDS011;69556;45.004;7.532;2023-11-22T05:13:09;33.67;;;17.70;;
80241;SDS011;69556;45.004;7.532;2023-11-22T05:15:34;28.23;;;16.05;;
80241;SDS011;69556;45.004;7.532;2023-11-22T05:17:59;28.55;;;16.73;;
80241;SDS011;69556;45.004;7.532;2023-11-22T05:20:25;33.03;;;17.00;;
80241;SDS011;69556;45.004;7.532;2023-11-22T05:22:50;34.92;;;15.45;;
80241;SDS011;69556;45.004;7.532;2023-11-22T05:25:16;30.70;;;15.03;;
80241;SDS011;69556;45.004;7.532;2023-11-22T05:27:41;30.57;;;16.13;;
80241;SDS011;69556;45.004;7.532;2023-11-22T05:30:07;32.45;;;16.05;;
80241;SDS011;69556;45.004;7.532;2023-11-22T05:32:33;25.15;;;14.68;;
80241;SDS011;69556;45.004;7.532;2023-11-22T05:34:58;30.33;;;14.07;;
80241;SDS011;69556;45.004;7.532;2023-11-22T05:37:24;25.83;;;12.77;;
80241;SDS011;69556;45.004;7.532;2023-11-22T05:39:49;33.00;;;13.25;;
80241;SDS011;69556;45.004;7.532;2023-11-22T05:42:15;31.95;;;12.85;;
80241;SDS011;69556;45.004;7.532;2023-11-22T05:44:40;30.33;;;13.52;;
80241;SDS011;69556;45.004;7.532;2023-11-22T05:47:05;30.38;;;13.82;;
80241;SDS011;69556;45.004;7.532;2023-11-22T05:49:32;30.13;;;14.60;;
80241;SDS011;69556;45.004;7.532;2023-11-22T05:51:58;29.15;;;12.90;;
80241;SDS011;69556;45.004;7.532;2023-11-22T05:54:23;25.45;;;12.98;;
80241;SDS011;69556;45.004;7.532;2023-11-22T05:56:49;25.23;;;13.43;;
80241;SDS011;69556;45.004;7.532;2023-11-22T05:59:14;26.02;;;14.85;;
80241;SDS011;69556;45.004;7.532;2023-11-22T06:01:40;30.65;;;14.55;;
80241;SDS011;69556;45.004;7.532;2023-11-22T06:04:05;33.83;;;14.77;;
80241;SDS011;69556;45.004;7.532;2023-11-22T06:06:34;22.23;;;12.77;;
80241;SDS011;69556;45.004;7.532;2023-11-22T06:08:59;27.98;;;14.60;;
80241;SDS011;69556;45.004;7.532;2023-11-22T06:11:25;30.48;;;15.35;;
80241;SDS011;69556;45.004;7.532;2023-11-22T06:13:50;30.08;;;16.90;;
80241;SDS011;69556;45.004;7.532;2023-11-22T06:16:16;37.53;;;17.63;;
80241;SDS011;69556;45.004;7.532;2023-11-22T06:18:42;40.50;;;17.80;;
80241;SDS011;69556;45.004;7.532;2023-11-22T06:21:09;35.40;;;19.25;;
80241;SDS011;69556;45.004;7.532;2023-11-22T06:23:35;34.45;;;16.55;;
80241;SDS011;69556;45.004;7.532;2023-11-22T06:26:00;43.88;;;19.00;;
80241;SDS011;69556;45.004;7.532;2023-11-22T06:28:26;34.17;;;17.67;;
80241;SDS011;69556;45.004;7.532;2023-11-22T06:30:51;34.20;;;17.00;;
80241;SDS011;69556;45.004;7.532;2023-11-22T06:33:17;37.13;;;16.67;;
80241;SDS011;69556;45.004;7.532;2023-11-22T06:35:43;33.15;;;15.90;;
80241;SDS011;69556;45.004;7.532;2023-11-22T06:38:08;39.20;;;19.27;;
80241;SDS011;69556;45.004;7.532;2023-11-22T06:40:34;37.67;;;18.07;;
80241;SDS011;69556;45.004;7.532;2023-11-22T06:42:59;37.00;;;17.13;;
80241;SDS011;69556;45.004;7.532;2023-11-22T06:45:24;37.00;;;18.40;;
80241;SDS011;69556;45.004;7.532;2023-11-22T06:47:50;34.03;;;18.15;;
80241;SDS011;69556;45.004;7.532;2023-11-22T06:50:15;34.77;;;18.70;;
80241;SDS011;69556;45.004;7.532;2023-11-22T06:52:41;31.45;;;16.35;;
80241;SDS011;69556;45.004;7.532;2023-11-22T06:55:10;41.13;;;18.63;;
80241;SDS011;69556;45.004;7.532;2023-11-22T06:57:37;22.90;;;12.43;;
80241;SDS011;69556;45.004;7.532;2023-11-22T07:00:06;26.10;;;11.98;;
80241;SDS011;69556;45.004;7.532;2023-11-22T07:02:35;25.40;;;12.30;;
80241;SDS011;69556;45.004;7.532;2023-11-22T07:05:01;25.08;;;11.32;;
80241;SDS011;69556;45.004;7.532;2023-11-22T07:07:37;28.55;;;14.90;;
80241;SDS011;69556;45.004;7.532;2023-11-22T07:10:03;25.75;;;12.20;;
80241;SDS011;69556;45.004;7.532;2023-11-22T07:12:30;26.10;;;11.73;;
80241;SDS011;69556;45.004;7.532;2023-11-22T07:14:56;23.92;;;11.48;;
80241;SDS011;69556;45.004;7.532;2023-11-22T07:17:22;28.45;;;14.65;;
80241;SDS011;69556;45.004;7.532;2023-11-22T07:19:48;27.17;;;14.85;;
80241;SDS011;69556;45.004;7.532;2023-11-22T07:22:16;25.92;;;13.82;;
80241;SDS011;69556;45.004;7.532;2023-11-22T07:24:43;29.17;;;14.32;;
80241;SDS011;69556;45.004;7.532;2023-11-22T07:27:09;34.72;;;16.60;;
80241;SDS011;69556;45.004;7.532;2023-11-22T07:29:37;37.17;;;17.60;;
80241;SDS011;69556;45.004;7.532;2023-11-22T07:32:05;33.42;;;17.58;;
80241;SDS011;69556;45.004;7.532;2023-11-22T07:34:32;36.55;;;17.83;;
80241;SDS011;69556;45.004;7.532;2023-11-22T07:36:58;34.53;;;18.35;;
80241;SDS011;69556;45.004;7.532;2023-11-22T07:39:24;32.92;;;17.58;;
80241;SDS011;69556;45.004;7.532;2023-11-22T07:41:52;31.85;;;16.85;;
80241;SDS011;69556;45.004;7.532;2023-11-22T07:44:21;34.13;;;16.42;;
80241;SDS011;69556;45.004;7.532;2023-11-22T07:46:47;34.05;;;17.90;;
80241;SDS011;69556;45.004;7.532;2023-11-22T07:49:13;33.13;;;18.25;;
80241;SDS011;69556;45.004;7.532;2023-11-22T07:51:42;36.60;;;18.73;;
80241;SDS011;69556;45.004;7.532;2023-11-22T07:54:10;36.42;;;20.02;;
80241;SDS011;69556;45.004;7.532;2023-11-22T07:56:40;34.55;;;18.50;;
80241;SDS011;69556;45.004;7.532;2023-11-22T07:59:08;38.25;;;17.38;;
80241;SDS011;69556;45.004;7.532;2023-11-22T08:01:34;35.22;;;18.05;;
80241;SDS011;69556;45.004;7.532;2023-11-22T08:03:59;34.30;;;18.30;;
80241;SDS011;69556;45.004;7.532;2023-11-22T08:06:25;37.83;;;18.13;;
80241;SDS011;69556;45.004;7.532;2023-11-22T08:08:51;40.33;;;16.77;;
80241;SDS011;69556;45.004;7.532;2023-11-22T08:11:18;33.53;;;16.52;;
80241;SDS011;69556;45.004;7.532;2023-11-22T08:13:44;31.05;;;18.42;;
80241;SDS011;69556;45.004;7.532;2023-11-22T08:16:12;27.58;;;13.90;;
80241;SDS011;69556;45.004;7.532;2023-11-22T08:18:38;33.53;;;15.00;;
80241;SDS011;69556;45.004;7.532;2023-11-22T08:21:05;28.83;;;16.60;;
80241;SDS011;69556;45.004;7.532;2023-11-22T08:23:31;31.98;;;16.50;;
80241;SDS011;69556;45.004;7.532;2023-11-22T08:25:58;29.48;;;16.92;;
80241;SDS011;69556;45.004;7.532;2023-11-22T08:28:24;30.42;;;16.65;;
80241;SDS011;69556;45.004;7.532;2023-11-22T08:30:50;38.20;;;18.10;;
80241;SDS011;69556;45.004;7.532;2023-11-22T08:33:16;38.03;;;20.27;;
80241;SDS011;69556;45.004;7.532;2023-11-22T08:35:42;36.23;;;21.00;;
80241;SDS011;69556;45.004;7.532;2023-11-22T08:38:08;31.70;;;18.00;;
80241;SDS011;69556;45.004;7.532;2023-11-22T08:40:34;37.28;;;19.15;;
80241;SDS011;69556;45.004;7.532;2023-11-22T08:43:02;33.40;;;17.63;;
80241;SDS011;69556;45.004;7.532;2023-11-22T08:45:29;36.95;;;19.67;;
80241;SDS011;69556;45.004;7.532;2023-11-22T08:47:56;47.88;;;22.38;;
80241;SDS011;69556;45.004;7.532;2023-11-22T08:50:21;36.15;;;21.13;;
80241;SDS011;69556;45.004;7.532;2023-11-22T08:52:48;38.47;;;19.48;;
80241;SDS011;69556;45.004;7.532;2023-11-22T08:55:13;40.40;;;22.10;;
80241;SDS011;69556;45.004;7.532;2023-11-22T08:57:40;36.10;;;19.35;;
80241;SDS011;69556;45.004;7.532;2023-11-22T09:00:05;38.30;;;20.48;;
80241;SDS011;69556;45.004;7.532;2023-11-22T09:02:34;29.90;;;18.48;;
80241;SDS011;69556;45.004;7.532;2023-11-22T09:05:04;38.72;;;18.35;;
80241;SDS011;69556;45.004;7.532;2023-11-22T09:07:32;34.83;;;17.70;;
80241;SDS011;69556;45.004;7.532;2023-11-22T09:09:59;32.13;;;17.73;;
80241;SDS011;69556;45.004;7.532;2023-11-22T09:12:25;37.45;;;17.55;;
80241;SDS011;69556;45.004;7.532;2023-11-22T09:14:52;30.67;;;17.95;;
80241;SDS011;69556;45.004;7.532;2023-11-22T09:17:18;28.15;;;16.88;;
80241;SDS011;69556;45.004;7.532;2023-11-22T09:19:43;32.15;;;18.15;;
80241;SDS011;69556;45.004;7.532;2023-11-22T09:22:08;29.30;;;16.53;;
80241;SDS011;69556;45.004;7.532;2023-11-22T09:24:36;31.17;;;17.58;;
80241;SDS011;69556;45.004;7.532;2023-11-22T09:27:02;36.75;;;18.40;;
80241;SDS011;69556;45.004;7.532;2023-11-22T09:29:30;31.08;;;17.02;;
80241;SDS011;69556;45.004;7.532;2023-11-22T09:31:57;27.08;;;15.48;;
80241;SDS011;69556;45.004;7.532;2023-11-22T09:34:23;27.90;;;16.77;;
80241;SDS011;69556;45.004;7.532;2023-11-22T09:36:49;29.35;;;17.15;;
80241;SDS011;69556;45.004;7.532;2023-11-22T09:39:14;27.02;;;16.70;;
80241;SDS011;69556;45.004;7.532;2023-11-22T09:41:40;30.92;;;15.43;;
80241;SDS011;69556;45.004;7.532;2023-11-22T09:44:05;33.05;;;16.83;;
80241;SDS011;69556;45.004;7.532;2023-11-22T09:46:31;30.38;;;15.68;;
80241;SDS011;69556;45.004;7.532;2023-11-22T09:48:59;34.30;;;15.32;;
80241;SDS011;69556;45.004;7.532;2023-11-22T09:51:28;27.58;;;13.98;;
80241;SDS011;69556;45.004;7.532;2023-11-22T09:56:32;27.63;;;13.88;;
80241;SDS011;69556;45.004;7.532;2023-11-22T09:58:59;28.77;;;15.00;;
80241;SDS011;69556;45.004;7.532;2023-11-22T10:01:28;24.23;;;12.02;;
80241;SDS011;69556;45.004;7.532;2023-11-22T10:03:55;20.52;;;11.18;;
80241;SDS011;69556;45.004;7.532;2023-11-22T10:06:22;24.02;;;12.95;;
80241;SDS011;69556;45.004;7.532;2023-11-22T10:08:48;27.48;;;13.82;;
80241;SDS011;69556;45.004;7.532;2023-11-22T10:11:14;21.90;;;12.65;;
80241;SDS011;69556;45.004;7.532;2023-11-22T10:13:42;20.25;;;11.93;;
80241;SDS011;69556;45.004;7.532;2023-11-22T10:16:17;20.52;;;11.88;;
80241;SDS011;69556;45.004;7.532;2023-11-22T10:18:45;16.83;;;9.68;;
80241;SDS011;69556;45.004;7.532;2023-11-22T10:21:24;20.13;;;9.70;;
80241;SDS011;69556;45.004;7.532;2023-11-22T10:26:21;13.05;;;6.40;;
80241;SDS011;69556;45.004;7.532;2023-11-22T10:28:52;11.02;;;6.60;;
80241;SDS011;69556;45.004;7.532;2023-11-22T10:31:18;10.07;;;5.90;;
80241;SDS011;69556;45.004;7.532;2023-11-22T10:33:48;11.07;;;6.28;;
80241;SDS011;69556;45.004;7.532;2023-11-22T10:36:13;11.30;;;7.10;;
80241;SDS011;69556;45.004;7.532;2023-11-22T10:38:40;6.72;;;4.50;;
80241;SDS011;69556;45.004;7.532;2023-11-22T10:41:07;7.18;;;4.20;;
80241;SDS011;69556;45.004;7.532;2023-11-22T10:43:36;7.55;;;4.53;;
80241;SDS011;69556;45.004;7.532;2023-11-22T10:46:02;8.20;;;4.35;;
80241;SDS011;69556;45.004;7.532;2023-11-22T10:48:29;5.28;;;3.80;;
80241;SDS011;69556;45.004;7.532;2023-11-22T10:50:57;7.22;;;4.20;;
80241;SDS011;69556;45.004;7.532;2023-11-22T10:53:31;8.88;;;4.00;;
80241;SDS011;69556;45.004;7.532;2023-11-22T10:58:50;6.32;;;2.85;;
80241;SDS011;69556;45.004;7.532;2023-11-22T11:01:17;4.00;;;2.42;;
80241;SDS011;69556;45.004;7.532;2023-11-22T11:04:18;3.55;;;2.00;;
80241;SDS011;69556;45.004;7.532;2023-11-22T11:06:51;4.68;;;2.30;;
80241;SDS011;69556;45.004;7.532;2023-11-22T11:09:20;4.68;;;2.92;;
80241;SDS011;69556;45.004;7.532;2023-11-22T11:11:49;5.03;;;2.33;;
80241;SDS011;69556;45.004;7.532;2023-11-22T11:14:15;4.07;;;2.25;;
80241;SDS011;69556;45.004;7.532;2023-11-22T11:16:43;3.22;;;2.13;;
80241;SDS011;69556;45.004;7.532;2023-11-22T11:19:14;5.72;;;2.63;;
80241;SDS011;69556;45.004;7.532;2023-11-22T11:21:40;7.85;;;3.00;;
80241;SDS011;69556;45.004;7.532;2023-11-22T11:24:06;7.97;;;3.35;;
80241;SDS011;69556;45.004;7.532;2023-11-22T11:26:32;3.33;;;2.00;;
80241;SDS011;69556;45.004;7.532;2023-11-22T11:28:59;5.22;;;2.78;;
80241;SDS011;69556;45.004;7.532;2023-11-22T11:31:25;4.05;;;2.33;;
80241;SDS011;69556;45.004;7.532;2023-11-22T11:33:56;6.25;;;2.10;;
80241;SDS011;69556;45.004;7.532;2023-11-22T11:36:29;2.28;;;1.67;;
80241;SDS011;69556;45.004;7.532;2023-11-22T11:38:59;2.17;;;1.73;;
80241;SDS011;69556;45.004;7.532;2023-11-22T11:41:27;2.97;;;1.88;;
80241;SDS011;69556;45.004;7.532;2023-11-22T11:43:58;3.28;;;1.52;;
80241;SDS011;69556;45.004;7.532;2023-11-22T11:46:28;1.98;;;1.45;;
80241;SDS011;69556;45.004;7.532;2023-11-22T11:48:54;4.50;;;2.30;;
80241;SDS011;69556;45.004;7.532;2023-11-22T11:51:24;2.95;;;2.08;;
80241;SDS011;69556;45.004;7.532;2023-11-22T11:53:50;4.13;;;1.90;;
80241;SDS011;69556;45.004;7.532;2023-11-22T11:56:16;3.33;;;1.80;;
80241;SDS011;69556;45.004;7.532;2023-11-22T11:58:43;3.17;;;2.28;;
80241;SDS011;69556;45.004;7.532;2023-11-22T12:01:11;3.33;;;2.10;;
80241;SDS011;69556;45.004;7.532;2023-11-22T12:03:37;4.10;;;2.35;;
80241;SDS011;69556;45.004;7.532;2023-11-22T12:06:04;3.03;;;1.70;;
80241;SDS011;69556;45.004;7.532;2023-11-22T12:08:30;3.92;;;1.73;;
80241;SDS011;69556;45.004;7.532;2023-11-22T12:10:58;4.03;;;1.98;;
80241;SDS011;69556;45.004;7.532;2023-11-22T12:13:24;4.13;;;3.03;;
80241;SDS011;69556;45.004;7.532;2023-11-22T12:15:51;25.48;;;17.00;;
80241;SDS011;69556;45.004;7.532;2023-11-22T12:18:18;4.10;;;2.58;;
80241;SDS011;69556;45.004;7.532;2023-11-22T12:20:53;2.50;;;1.73;;
80241;SDS011;69556;45.004;7.532;2023-11-22T12:23:22;2.90;;;2.10;;
80241;SDS011;69556;45.004;7.532;2023-11-22T12:25:52;3.92;;;2.03;;
80241;SDS011;69556;45.004;7.532;2023-11-22T12:28:21;2.35;;;1.60;;
80241;SDS011;69556;45.004;7.532;2023-11-22T12:30:47;2.03;;;1.83;;
80241;SDS011;69556;45.004;7.532;2023-11-22T12:33:13;3.05;;;1.90;;
80241;SDS011;69556;45.004;7.532;2023-11-22T12:35:42;3.97;;;2.15;;
80241;SDS011;69556;45.004;7.532;2023-11-22T12:38:09;2.42;;;1.70;;
80241;SDS011;69556;45.004;7.532;2023-11-22T12:40:35;2.60;;;1.63;;
80241;SDS011;69556;45.004;7.532;2023-11-22T12:43:01;2.00;;;1.40;;
80241;SDS011;69556;45.004;7.532;2023-11-22T12:45:28;3.05;;;1.63;;
80241;SDS011;69556;45.004;7.532;2023-11-22T12:47:55;4.45;;;1.83;;
80241;SDS011;69556;45.004;7.532;2023-11-22T12:55:55;2.72;;;1.83;;
80241;SDS011;69556;45.004;7.532;2023-11-22T12:58:21;4.40;;;2.28;;
80241;SDS011;69556;45.004;7.532;2023-11-22T13:00:49;8.65;;;4.88;;
80241;SDS011;69556;45.004;7.532;2023-11-22T13:03:16;7.32;;;3.35;;
80241;SDS011;69556;45.004;7.532;2023-11-22T13:05:43;4.95;;;2.25;;
80241;SDS011;69556;45.004;7.532;2023-11-22T13:08:10;4.90;;;1.92;;
80241;SDS011;69556;45.004;7.532;2023-11-22T13:10:45;2.85;;;2.28;;
80241;SDS011;69556;45.004;7.532;2023-11-22T13:13:13;3.35;;;2.20;;
80241;SDS011;69556;45.004;7.532;2023-11-22T13:15:39;3.33;;;2.40;;
80241;SDS011;69556;45.004;7.532;2023-11-22T13:18:05;2.95;;;2.30;;
80241;SDS011;69556;45.004;7.532;2023-11-22T13:20:31;3.40;;;1.85;;
80241;SDS011;69556;45.004;7.532;2023-11-22T13:22:57;3.40;;;2.00;;
80241;SDS011;69556;45.004;7.532;2023-11-22T13:25:24;2.20;;;1.65;;
80241;SDS011;69556;45.004;7.532;2023-11-22T13:27:50;2.97;;;2.03;;
80241;SDS011;69556;45.004;7.532;2023-11-22T13:30:17;4.20;;;2.10;;
80241;SDS011;69556;45.004;7.532;2023-11-22T13:32:45;3.10;;;1.67;;
80241;SDS011;69556;45.004;7.532;2023-11-22T13:35:12;4.00;;;1.50;;
80241;SDS011;69556;45.004;7.532;2023-11-22T13:37:43;4.68;;;1.63;;
80241;SDS011;69556;45.004;7.532;2023-11-22T13:40:16;2.45;;;1.58;;
80241;SDS011;69556;45.004;7.532;2023-11-22T13:42:52;3.20;;;1.60;;
80241;SDS011;69556;45.004;7.532;2023-11-22T13:45:18;4.93;;;1.48;;
80241;SDS011;69556;45.004;7.532;2023-11-22T13:47:48;2.58;;;1.80;;
80241;SDS011;69556;45.004;7.532;2023-11-22T13:50:25;4.95;;;1.95;;
80241;SDS011;69556;45.004;7.532;2023-11-22T13:52:52;3.33;;;2.40;;
80241;SDS011;69556;45.004;7.532;2023-11-22T13:55:18;4.05;;;2.35;;
80241;SDS011;69556;45.004;7.532;2023-11-22T13:57:50;4.95;;;3.17;;
80241;SDS011;69556;45.004;7.532;2023-11-22T14:00:17;4.63;;;3.22;;
80241;SDS011;69556;45.004;7.532;2023-11-22T14:02:47;7.10;;;3.60;;
80241;SDS011;69556;45.004;7.532;2023-11-22T14:05:13;8.02;;;3.75;;
80241;SDS011;69556;45.004;7.532;2023-11-22T14:07:38;5.47;;;3.13;;
80241;SDS011;69556;45.004;7.532;2023-11-22T14:10:04;4.57;;;2.83;;
80241;SDS011;69556;45.004;7.532;2023-11-22T14:12:31;6.70;;;2.65;;
80241;SDS011;69556;45.004;7.532;2023-11-22T14:14:57;10.20;;;5.68;;
80241;SDS011;69556;45.004;7.532;2023-11-22T14:17:23;15.27;;;8.50;;
80241;SDS011;69556;45.004;7.532;2023-11-22T14:19:49;14.40;;;7.75;;
80241;SDS011;69556;45.004;7.532;2023-11-22T14:22:15;12.05;;;7.88;;
80241;SDS011;69556;45.004;7.532;2023-11-22T14:24:41;23.33;;;10.60;;
80241;SDS011;69556;45.004;7.532;2023-11-22T14:27:06;58.33;;;32.17;;
80241;SDS011;69556;45.004;7.532;2023-11-22T14:29:31;15.13;;;8.20;;
80241;SDS011;69556;45.004;7.532;2023-11-22T14:31:58;7.43;;;3.05;;
80241;SDS011;69556;45.004;7.532;2023-11-22T14:34:23;7.72;;;4.47;;
80241;SDS011;69556;45.004;7.532;2023-11-22T14:36:49;7.70;;;2.80;;
80241;SDS011;69556;45.004;7.532;2023-11-22T14:39:14;6.53;;;2.60;;